Time;durP1;ratioP1;P1;durP2;ratioP2;P2;SDS_P1;SDS_P2;PMS_P1;PMS_P2;Temp;Humidity;BMP_temperature;BMP_pressure;BME280_temperature;BME280_humidity;BME280_pressure;Samples;Min_cycle;Max_cycle;Signal;HPM_P1;HPM_P2
2023/10/29 00:02:09;;;;;;;;;;;;;;;9.07;30.13;100307.16;5092677;28;19957;-56
2023/10/29 00:04:38;;;;;;;;;;;;;;;9.05;29.72;100306.53;5073340;28;19919;-54
2023/10/29 00:07:03;;;;;;;;;;;;;;;9.07;29.40;100310.66;5082374;28;20472;-57
2023/10/29 00:09:29;;;;;;;;;;;;;;;9.06;29.29;100311.69;5075714;28;19965;-56
2023/10/29 00:11:54;;;;;;;;;;;;;;;9.05;29.30;100311.88;5093267;28;19920;-56
2023/10/29 00:14:19;;;;;;;;;;;;;;;9.06;29.50;100314.38;5093773;28;19916;-56
2023/10/29 00:16:45;;;;;;;;;;;;;;;9.08;29.76;100311.47;5093292;28;19996;-54
2023/10/29 00:19:10;;;;;;;;;;;;;;;9.11;29.50;100311.13;5093307;28;19912;-56
2023/10/29 00:21:35;;;;;;;;;;;;;;;9.10;29.41;100304.94;5096333;28;20006;-56
2023/10/29 00:24:01;;;;;;;;;;;;;;;9.11;30.00;100306.59;5114019;28;19918;-58
2023/10/29 00:26:26;;;;;;;;;;;;;;;9.13;30.21;100302.91;5096574;28;20010;-57
2023/10/29 00:28:52;;;;;;;;;;;;;;;9.10;30.47;100299.59;5093496;28;19969;-54
2023/10/29 00:31:18;;;;;;;;;;;;;;;9.12;30.59;100299.41;5093330;28;19916;-55
2023/10/29 00:33:43;;;;;;;;;;;;;;;9.12;29.87;100291.38;5093149;28;19912;-54
2023/10/29 00:36:09;;;;;;;;;;;;;;;9.14;30.96;100301.88;5093744;28;19955;-56
2023/10/29 00:38:34;;;;;;;;;;;;;;;9.10;30.20;100298.72;5095431;28;19916;-58
2023/10/29 00:40:59;;;;;;;;;;;;;;;9.10;30.69;100286.19;5097551;28;20007;-58
2023/10/29 00:43:25;;;;;;;;;;;;;;;9.09;30.77;100286.38;5097380;28;20425;-57
2023/10/29 00:45:52;;;;;;;;;;;;;;;9.07;30.09;100278.53;5097612;28;20001;-55
2023/10/29 00:48:17;;;;;;;;;;;;;;;9.08;29.76;100285.56;5097326;28;20388;-57
2023/10/29 00:50:43;;;;;;;;;;;;;;;9.07;30.05;100285.72;5097149;28;19939;-53
2023/10/29 00:53:08;;;;;;;;;;;;;;;9.05;30.29;100277.88;5097144;28;19916;-52
2023/10/29 00:55:35;;;;;;;;;;;;;;;9.04;29.84;100278.88;5096614;28;19955;-54
2023/10/29 00:58:00;;;;;;;;;;;;;;;9.03;30.38;100263.84;5097004;28;19920;-54
2023/10/29 01:00:25;;;;;;;;;;;;;;;9.05;30.61;100263.66;5097355;28;20292;-54
2023/10/29 01:02:51;;;;;;;;;;;;;;;9.06;30.51;100257.28;5088247;28;20353;-56
2023/10/29 01:05:16;;;;;;;;;;;;;;;9.03;30.17;100258.50;5097197;28;19916;-54
2023/10/29 01:07:41;;;;;;;;;;;;;;;9.01;30.39;100257.84;5096822;28;20383;-54
2023/10/29 01:10:07;;;;;;;;;;;;;;;9.02;30.35;100254.13;5096983;28;19916;-56
2023/10/29 01:12:32;;;;;;;;;;;;;;;9.00;30.90;100256.19;5097024;28;19919;-54
2023/10/29 01:14:57;;;;;;;;;;;;;;;8.99;30.75;100257.22;5097188;28;20265;-53
2023/10/29 01:17:23;;;;;;;;;;;;;;;8.96;30.09;100260.25;5096983;28;19913;-55
2023/10/29 01:19:49;;;;;;;;;;;;;;;8.95;29.99;100255.09;5110498;28;19916;-53
2023/10/29 01:22:16;;;;;;;;;;;;;;;8.93;29.93;100251.75;5096913;28;19974;-56
2023/10/29 01:24:42;;;;;;;;;;;;;;;8.96;29.95;100248.72;5078316;28;19912;-52
2023/10/29 01:27:07;;;;;;;;;;;;;;;8.95;29.50;100247.88;5112344;28;20011;-56
2023/10/29 01:29:32;;;;;;;;;;;;;;;8.94;29.63;100240.06;5096682;28;19951;-53
2023/10/29 01:31:58;;;;;;;;;;;;;;;8.90;30.09;100231.56;5096619;28;20436;-57
2023/10/29 01:34:24;;;;;;;;;;;;;;;8.90;30.08;100239.59;5096812;28;19912;-56
2023/10/29 01:36:49;;;;;;;;;;;;;;;8.93;30.56;100243.72;5096445;28;19915;-57
2023/10/29 01:39:14;;;;;;;;;;;;;;;8.89;30.50;100240.59;5096664;28;19912;-58
2023/10/29 01:41:40;;;;;;;;;;;;;;;8.87;30.91;100238.09;5096422;28;19912;-55
2023/10/29 01:44:05;;;;;;;;;;;;;;;8.89;30.20;100236.06;5096735;28;19919;-56
2023/10/29 01:46:30;;;;;;;;;;;;;;;8.90;29.71;100248.44;5078102;28;20448;-56
2023/10/29 01:48:55;;;;;;;;;;;;;;;8.86;30.58;100246.34;5095937;28;20442;-57
2023/10/29 01:51:21;;;;;;;;;;;;;;;8.88;30.89;100242.47;5105784;28;19935;-57
2023/10/29 01:53:46;;;;;;;;;;;;;;;8.92;30.77;100245.59;5110924;28;19999;-56
2023/10/29 01:56:11;;;;;;;;;;;;;;;8.89;30.51;100240.59;5096007;28;19919;-55
2023/10/29 01:58:36;;;;;;;;;;;;;;;8.88;30.58;100231.75;5095969;28;19942;-57
2023/10/29 02:01:07;;;;;;;;;;;;;;;8.87;30.42;100227.38;5096045;28;19952;-57
2023/10/29 02:03:33;;;;;;;;;;;;;;;8.87;30.52;100226.56;5095994;28;19966;-57
2023/10/29 02:05:58;;;;;;;;;;;;;;;8.87;29.74;100214.00;5096049;28;19916;-57
2023/10/29 02:08:24;;;;;;;;;;;;;;;8.83;29.92;100212.72;5095558;28;19923;-58
2023/10/29 02:10:49;;;;;;;;;;;;;;;8.80;30.17;100215.78;5095699;28;19990;-55
2023/10/29 02:13:16;;;;;;;;;;;;;;;8.76;29.93;100208.31;5095653;28;19934;-55
2023/10/29 02:15:42;;;;;;;;;;;;;;;8.69;29.78;100213.56;5111986;28;20002;-57
2023/10/29 02:18:07;;;;;;;;;;;;;;;8.59;30.28;100207.69;5116260;28;19953;-53
2023/10/29 02:20:33;;;;;;;;;;;;;;;8.45;30.32;100206.69;5115850;28;19994;-58
2023/10/29 02:22:58;;;;;;;;;;;;;;;8.37;30.49;100196.88;5116305;28;19916;-58
2023/10/29 02:25:23;;;;;;;;;;;;;;;8.28;30.47;100201.53;5107737;28;19912;-58
2023/10/29 02:27:49;;;;;;;;;;;;;;;8.16;30.37;100200.31;5095637;28;20252;-57
2023/10/29 02:30:14;;;;;;;;;;;;;;;8.10;30.00;100198.38;5095382;28;19978;-56
2023/10/29 02:32:39;;;;;;;;;;;;;;;8.02;30.83;100203.81;5095412;28;19916;-54
2023/10/29 02:35:06;;;;;;;;;;;;;;;7.95;30.90;100193.84;5095352;28;19916;-57
2023/10/29 02:37:31;;;;;;;;;;;;;;;7.86;30.31;100199.47;5095286;28;19912;-57
2023/10/29 02:39:56;;;;;;;;;;;;;;;7.80;30.80;100189.50;5095465;28;19913;-59
2023/10/29 02:42:22;;;;;;;;;;;;;;;7.72;31.55;100177.88;5095332;28;19919;-57
2023/10/29 02:44:47;;;;;;;;;;;;;;;7.63;30.75;100170.13;5096054;28;20353;-55
2023/10/29 02:47:12;;;;;;;;;;;;;;;7.60;31.44;100174.00;5096246;28;20307;-57
2023/10/29 02:49:38;;;;;;;;;;;;;;;7.57;31.81;100179.69;5094962;28;19916;-57
2023/10/29 02:52:03;;;;;;;;;;;;;;;7.51;30.97;100181.25;5111722;28;19919;-56
2023/10/29 02:54:28;;;;;;;;;;;;;;;7.46;30.87;100188.13;5115263;28;19923;-57
2023/10/29 02:56:53;;;;;;;;;;;;;;;7.40;31.80;100183.53;5096872;28;20276;-58
2023/10/29 02:59:20;;;;;;;;;;;;;;;7.33;31.72;100186.06;5095089;28;19919;-55
2023/10/29 03:01:45;;;;;;;;;;;;;;;7.28;31.37;100188.44;5089561;28;19931;-56
2023/10/29 03:04:11;;;;;;;;;;;;;;;7.21;31.35;100190.19;5056711;28;19913;-56
2023/10/29 03:06:41;;;;;;;;;;;;;;;7.17;31.95;100184.38;5074392;28;19912;-54
2023/10/29 03:09:06;;;;;;;;;;;;;;;7.14;31.55;100185.53;5085055;28;20273;-56
2023/10/29 03:11:32;;;;;;;;;;;;;;;7.10;31.91;100191.44;5088550;28;19920;-57
2023/10/29 03:13:59;;;;;;;;;;;;;;;7.04;32.83;100184.97;5094542;28;19938;-56
2023/10/29 03:16:24;;;;;;;;;;;;;;;7.02;32.23;100188.81;5094929;28;19966;-57
2023/10/29 03:18:49;;;;;;;;;;;;;;;6.97;32.97;100192.84;5094901;28;20311;-56
2023/10/29 03:21:16;;;;;;;;;;;;;;;6.93;32.54;100188.03;5094506;28;20291;-57
2023/10/29 03:23:42;;;;;;;;;;;;;;;6.85;33.06;100186.22;5076603;28;19912;-57
2023/10/29 03:26:07;;;;;;;;;;;;;;;6.83;32.87;100187.44;5094488;28;19935;-57
2023/10/29 03:28:34;;;;;;;;;;;;;;;6.77;33.09;100178.28;5094316;28;19919;-57
2023/10/29 03:30:59;;;;;;;;;;;;;;;6.74;32.63;100184.81;5094345;28;19916;-56
2023/10/29 03:33:24;;;;;;;;;;;;;;;6.69;33.15;100179.16;5094446;28;19912;-57
2023/10/29 03:35:50;;;;;;;;;;;;;;;6.68;33.02;100180.16;5094321;28;19912;-58
2023/10/29 03:38:15;;;;;;;;;;;;;;;6.66;33.33;100168.84;5094352;28;20360;-53
2023/10/29 03:40:40;;;;;;;;;;;;;;;6.68;33.13;100166.81;5094264;28;19918;-53
2023/10/29 03:43:06;;;;;;;;;;;;;;;6.62;32.76;100172.88;5094045;28;19912;-57
2023/10/29 03:45:31;;;;;;;;;;;;;;;6.62;33.32;100167.53;5076034;28;19912;-54
2023/10/29 03:47:56;;;;;;;;;;;;;;;6.60;33.77;100161.53;5093964;28;20424;-53
2023/10/29 03:50:21;;;;;;;;;;;;;;;6.61;33.44;100162.38;5112080;28;19912;-55
2023/10/29 03:52:47;;;;;;;;;;;;;;;6.61;33.08;100162.38;5098929;28;19920;-58
2023/10/29 03:55:12;;;;;;;;;;;;;;;6.59;33.21;100165.19;5093851;28;19973;-55
2023/10/29 03:57:37;;;;;;;;;;;;;;;6.58;33.33;100163.56;5093906;28;19912;-58
2023/10/29 04:00:03;;;;;;;;;;;;;;;6.57;33.15;100165.41;5093857;28;20366;-56
2023/10/29 04:02:28;;;;;;;;;;;;;;;6.49;33.18;100169.94;5093611;28;19923;-55
2023/10/29 04:04:53;;;;;;;;;;;;;;;6.42;33.62;100159.13;5093963;28;19919;-55
2023/10/29 04:07:18;;;;;;;;;;;;;;;6.37;33.35;100161.47;5102699;28;19931;-56
2023/10/29 04:09:44;;;;;;;;;;;;;;;6.33;33.69;100160.16;5114572;28;19912;-57
2023/10/29 04:12:10;;;;;;;;;;;;;;;6.26;33.20;100160.03;5113729;28;19920;-56
2023/10/29 04:14:36;;;;;;;;;;;;;;;6.26;34.25;100154.72;5113789;28;19976;-57
2023/10/29 04:17:02;;;;;;;;;;;;;;;6.19;33.81;100159.88;5114022;28;19918;-57
2023/10/29 04:19:27;;;;;;;;;;;;;;;6.17;33.69;100159.22;5114122;28;20295;-55
2023/10/29 04:21:52;;;;;;;;;;;;;;;6.19;33.79;100154.56;5113812;28;20284;-56
2023/10/29 04:24:18;;;;;;;;;;;;;;;6.25;34.29;100149.53;5113813;28;19918;-54
2023/10/29 04:26:43;;;;;;;;;;;;;;;6.31;34.15;100151.50;5094345;28;19931;-58
2023/10/29 04:29:08;;;;;;;;;;;;;;;6.37;34.22;100148.13;5093290;28;19924;-54
2023/10/29 04:31:33;;;;;;;;;;;;;;;6.44;34.16;100142.94;5093852;28;19912;-56
2023/10/29 04:33:59;;;;;;;;;;;;;;;6.48;35.27;100147.78;5093618;28;20403;-57
2023/10/29 04:36:24;;;;;;;;;;;;;;;6.52;35.17;100149.09;5093721;28;20272;-58
2023/10/29 04:38:50;;;;;;;;;;;;;;;6.61;33.96;100141.84;5075381;28;20361;-56
2023/10/29 04:41:15;;;;;;;;;;;;;;;6.66;33.50;100139.47;5093296;28;19912;-55
2023/10/29 04:43:41;;;;;;;;;;;;;;;6.70;33.79;100146.13;5093263;28;19919;-57
2023/10/29 04:46:08;;;;;;;;;;;;;;;6.73;34.45;100134.28;5093251;28;19920;-55
2023/10/29 04:48:34;;;;;;;;;;;;;;;6.74;34.14;100131.44;5093397;28;19941;-56
2023/10/29 04:51:01;;;;;;;;;;;;;;;6.77;33.72;100119.56;5093716;28;20003;-54
2023/10/29 04:53:26;;;;;;;;;;;;;;;6.82;33.73;100116.38;5075239;28;20011;-57
2023/10/29 04:55:52;;;;;;;;;;;;;;;6.85;33.75;100108.81;5092915;28;19914;-55
2023/10/29 04:58:17;;;;;;;;;;;;;;;6.86;34.09;100099.81;5093188;28;19980;-59
2023/10/29 05:00:42;;;;;;;;;;;;;;;6.87;33.98;100109.50;5093031;28;19912;-58
2023/10/29 05:03:07;;;;;;;;;;;;;;;6.87;34.31;100103.31;5097844;28;20275;-56
2023/10/29 05:05:33;;;;;;;;;;;;;;;6.91;33.38;100101.94;5113614;28;19912;-59
2023/10/29 05:07:58;;;;;;;;;;;;;;;6.94;33.67;100102.41;5113939;28;19923;-59
2023/10/29 05:10:25;;;;;;;;;;;;;;;6.96;33.80;100103.09;5113465;28;19920;-59
2023/10/29 05:12:50;;;;;;;;;;;;;;;6.98;34.20;100110.91;5113589;28;20003;-55
2023/10/29 05:15:16;;;;;;;;;;;;;;;7.03;33.92;100111.19;5113490;28;20340;-59
2023/10/29 05:17:41;;;;;;;;;;;;;;;7.08;34.12;100108.00;5113419;28;20370;-56
2023/10/29 05:20:09;;;;;;;;;;;;;;;7.11;33.11;100111.16;5113479;28;19918;-57
2023/10/29 05:22:34;;;;;;;;;;;;;;;7.21;33.89;100113.56;5113272;28;19919;-57
2023/10/29 05:25:00;;;;;;;;;;;;;;;7.25;33.35;100106.03;5109392;28;19912;-55
2023/10/29 05:27:25;;;;;;;;;;;;;;;7.27;32.77;100114.69;5096505;28;19916;-54
2023/10/29 05:29:51;;;;;;;;;;;;;;;7.32;33.14;100113.13;5096602;28;19912;-57
2023/10/29 05:32:16;;;;;;;;;;;;;;;7.36;33.30;100109.06;5096372;28;19948;-58
2023/10/29 05:34:41;;;;;;;;;;;;;;;7.37;32.79;100115.25;5096567;28;19920;-58
2023/10/29 05:37:07;;;;;;;;;;;;;;;7.40;33.13;100111.41;5096461;28;20418;-57
2023/10/29 05:39:32;;;;;;;;;;;;;;;7.43;33.43;100113.69;5096405;28;19912;-57
2023/10/29 05:41:57;;;;;;;;;;;;;;;7.45;33.10;100106.34;5096388;28;19911;-57
2023/10/29 05:44:22;;;;;;;;;;;;;;;7.47;32.85;100097.13;5096385;28;20265;-55
2023/10/29 05:46:48;;;;;;;;;;;;;;;7.51;34.14;100105.59;5096183;28;20273;-56
2023/10/29 05:49:13;;;;;;;;;;;;;;;7.51;32.76;100101.09;5096213;28;19959;-58
2023/10/29 05:51:38;;;;;;;;;;;;;;;7.53;33.06;100095.56;5109327;28;20002;-55
2023/10/29 05:54:04;;;;;;;;;;;;;;;7.56;33.26;100104.03;5116299;28;19912;-55
2023/10/29 05:56:29;;;;;;;;;;;;;;;7.60;32.99;100103.69;5109615;28;19926;-56
2023/10/29 05:58:55;;;;;;;;;;;;;;;7.61;32.42;100105.34;5097178;28;19916;-55
2023/10/29 06:01:20;;;;;;;;;;;;;;;7.64;32.50;100103.13;5115273;28;19924;-56
2023/10/29 06:03:45;;;;;;;;;;;;;;;7.67;32.97;100101.91;5096403;28;20016;-57
2023/10/29 06:06:10;;;;;;;;;;;;;;;7.70;32.35;100097.03;5095904;28;19945;-56
2023/10/29 06:08:36;;;;;;;;;;;;;;;7.72;32.30;100097.69;5096061;28;19963;-58
2023/10/29 06:11:03;;;;;;;;;;;;;;;7.72;32.00;100095.00;5096009;28;20398;-57
2023/10/29 06:13:28;;;;;;;;;;;;;;;7.73;32.87;100087.84;5095874;28;19955;-58
2023/10/29 06:15:53;;;;;;;;;;;;;;;7.73;32.11;100082.50;5095792;28;19951;-58
2023/10/29 06:18:19;;;;;;;;;;;;;;;7.76;32.98;100092.78;5095489;28;19922;-58
2023/10/29 06:20:44;;;;;;;;;;;;;;;7.77;32.98;100083.78;5095815;28;19912;-57
2023/10/29 06:23:09;;;;;;;;;;;;;;;7.78;31.93;100088.09;5095706;28;20356;-57
2023/10/29 06:25:35;;;;;;;;;;;;;;;7.80;32.36;100094.13;5095638;28;19912;-54
2023/10/29 06:28:01;;;;;;;;;;;;;;;7.81;32.12;100086.91;5095490;28;20296;-55
2023/10/29 06:30:26;;;;;;;;;;;;;;;7.83;31.75;100087.56;5095507;28;19923;-59
2023/10/29 06:32:51;;;;;;;;;;;;;;;7.82;31.56;100085.88;5095451;28;19912;-58
2023/10/29 06:35:16;;;;;;;;;;;;;;;7.84;31.75;100095.41;5095077;28;19952;-56
2023/10/29 06:37:42;;;;;;;;;;;;;;;7.86;31.34;100088.00;5095268;28;19912;-56
2023/10/29 06:40:09;;;;;;;;;;;;;;;7.93;32.03;100085.41;5095456;28;19946;-58
2023/10/29 06:42:34;;;;;;;;;;;;;;;7.92;32.19;100087.25;5095334;28;19955;-58
2023/10/29 06:44:59;;;;;;;;;;;;;;;7.95;32.17;100086.91;5095268;28;20246;-58
2023/10/29 06:47:25;;;;;;;;;;;;;;;7.98;31.68;100087.53;5095238;28;19916;-57
2023/10/29 06:49:51;;;;;;;;;;;;;;;8.03;31.52;100088.63;5095127;28;19919;-58
2023/10/29 06:52:16;;;;;;;;;;;;;;;8.06;31.46;100087.44;5111219;28;19912;-56
2023/10/29 06:54:41;;;;;;;;;;;;;;;8.09;31.54;100087.06;5094515;27;20356;-59
2023/10/29 06:57:07;;;;;;;;;;;;;;;8.11;31.56;100085.84;5099994;28;19912;-56
2023/10/29 06:59:33;;;;;;;;;;;;;;;8.11;31.82;100083.19;5095428;28;19912;-54
2023/10/29 07:01:59;;;;;;;;;;;;;;;8.16;31.04;100082.63;5096987;28;19966;-56
2023/10/29 07:04:27;;;;;;;;;;;;;;;8.16;31.41;100087.97;5096438;28;20311;-57
2023/10/29 07:06:52;;;;;;;;;;;;;;;8.21;31.73;100087.41;5095633;28;19912;-58
2023/10/29 07:09:18;;;;;;;;;;;;;;;8.24;31.25;100085.19;5095764;28;19912;-58
2023/10/29 07:11:43;;;;;;;;;;;;;;;8.27;31.36;100090.16;5110229;28;19968;-57
2023/10/29 07:14:09;;;;;;;;;;;;;;;8.29;31.85;100088.13;5094722;28;19922;-56
2023/10/29 07:16:34;;;;;;;;;;;;;;;8.35;31.25;100086.56;5094449;28;20383;-57
2023/10/29 07:19:00;;;;;;;;;;;;;;;8.39;32.06;100084.31;5094548;28;19912;-55
2023/10/29 07:21:25;;;;;;;;;;;;;;;8.44;31.64;100087.31;5094480;28;20011;-55
2023/10/29 07:23:50;;;;;;;;;;;;;;;8.47;31.48;100078.91;5094614;28;19912;-57
2023/10/29 07:26:15;;;;;;;;;;;;;;;8.52;31.77;100071.13;5094194;28;19922;-59
2023/10/29 07:28:41;;;;;;;;;;;;;;;8.55;31.92;100077.97;5094292;28;20258;-57
2023/10/29 07:31:06;;;;;;;;;;;;;;;8.56;32.07;100083.09;5094306;28;19994;-58
2023/10/29 07:33:32;;;;;;;;;;;;;;;8.59;31.78;100076.56;5094284;28;19912;-58
2023/10/29 07:35:57;;;;;;;;;;;;;;;8.62;31.75;100082.34;5094205;28;19962;-56
2023/10/29 07:38:22;;;;;;;;;;;;;;;8.66;31.04;100078.28;5094025;28;20014;-58
2023/10/29 07:40:48;;;;;;;;;;;;;;;8.70;31.85;100068.84;5094460;28;19938;-56
2023/10/29 07:43:15;;;;;;;;;;;;;;;8.75;31.52;100075.47;5094295;28;19916;-54
2023/10/29 07:45:40;;;;;;;;;;;;;;;8.74;31.16;100069.28;5094326;28;19943;-55
2023/10/29 07:48:05;;;;;;;;;;;;;;;8.75;30.84;100062.06;5093508;28;20437;-57
2023/10/29 07:50:31;;;;;;;;;;;;;;;8.78;31.31;100064.38;5097491;28;19916;-57
2023/10/29 07:52:56;;;;;;;;;;;;;;;8.81;31.21;100059.47;5114541;28;20337;-57
2023/10/29 07:55:21;;;;;;;;;;;;;;;8.81;30.68;100056.78;5113743;28;19912;-57
2023/10/29 07:57:46;;;;;;;;;;;;;;;8.84;31.47;100055.56;5096121;28;20288;-58
2023/10/29 08:00:15;;;;;;;;;;;;;;;8.86;30.89;100062.41;5093613;28;20006;-56
2023/10/29 08:02:41;;;;;;;;;;;;;;;8.90;31.29;100065.53;5093467;28;20273;-56
2023/10/29 08:05:06;;;;;;;;;;;;;;;8.93;30.90;100056.28;5093835;28;19920;-59
2023/10/29 08:07:31;;;;;;;;;;;;;;;8.94;30.59;100058.75;5094040;28;19923;-54
2023/10/29 08:09:57;;;;;;;;;;;;;;;8.97;31.55;100058.38;5093618;28;19912;-58
2023/10/29 08:12:22;;;;;;;;;;;;;;;9.00;30.71;100060.66;5093630;28;19919;-57
2023/10/29 08:14:48;;;;;;;;;;;;;;;9.04;31.16;100058.41;5093628;28;19962;-58
2023/10/29 08:17:17;;;;;;;;;;;;;;;9.08;30.58;100054.31;5093495;28;19912;-57
2023/10/29 08:19:42;;;;;;;;;;;;;;;9.10;30.55;100042.41;5093510;28;19947;-58
2023/10/29 08:22:07;;;;;;;;;;;;;;;9.17;30.97;100041.63;5093537;28;19955;-57
2023/10/29 08:24:32;;;;;;;;;;;;;;;9.19;29.89;100040.41;5093433;28;19923;-57
2023/10/29 08:26:58;;;;;;;;;;;;;;;9.24;31.36;100045.19;5093146;28;19969;-54
2023/10/29 08:29:23;;;;;;;;;;;;;;;9.27;30.73;100040.25;5093679;28;19916;-58
2023/10/29 08:31:48;;;;;;;;;;;;;;;9.32;31.17;100045.03;5108933;28;20400;-58
2023/10/29 08:34:13;;;;;;;;;;;;;;;9.39;31.30;100040.53;5093229;28;19971;-59
2023/10/29 08:36:39;;;;;;;;;;;;;;;9.42;30.66;100032.13;5093379;28;19927;-58
2023/10/29 08:39:04;;;;;;;;;;;;;;;9.50;30.64;100034.63;5093183;28;19912;-57
2023/10/29 08:41:29;;;;;;;;;;;;;;;9.57;31.33;100032.00;5093285;28;19912;-57
2023/10/29 08:43:54;;;;;;;;;;;;;;;9.62;30.30;100028.72;5093641;28;19916;-56
2023/10/29 08:46:20;;;;;;;;;;;;;;;9.69;30.73;100024.22;5093335;28;19912;-58
2023/10/29 08:48:46;;;;;;;;;;;;;;;9.72;29.88;100013.09;5103723;28;19916;-58
2023/10/29 08:51:14;;;;;;;;;;;;;;;9.75;30.56;100018.06;5113686;28;19916;-57
2023/10/29 08:53:39;;;;;;;;;;;;;;;9.78;30.38;100014.97;5113206;28;19965;-56
2023/10/29 08:56:05;;;;;;;;;;;;;;;9.82;30.31;100013.53;5112669;28;20364;-56
2023/10/29 08:58:30;;;;;;;;;;;;;;;9.84;30.66;100011.50;5113580;28;19918;-57
2023/10/29 09:00:57;;;;;;;;;;;;;;;9.93;30.57;100014.00;5110854;28;19912;-57
2023/10/29 09:03:22;;;;;;;;;;;;;;;9.99;30.55;100010.50;5097012;28;20331;-58
2023/10/29 09:05:48;;;;;;;;;;;;;;;10.03;30.06;100007.25;5097034;28;19963;-58
2023/10/29 09:08:13;;;;;;;;;;;;;;;10.10;30.41;100012.63;5096958;28;20022;-58
2023/10/29 09:10:42;;;;;;;;;;;;;;;10.14;29.42;100008.53;5096952;28;19959;-57
2023/10/29 09:13:07;;;;;;;;;;;;;;;10.16;29.99;100011.81;5097199;28;20241;-58
2023/10/29 09:15:32;;;;;;;;;;;;;;;10.19;30.86;100016.78;5097336;28;19923;-57
2023/10/29 09:17:58;;;;;;;;;;;;;;;10.18;29.39;100015.13;5096918;28;20369;-58
2023/10/29 09:20:23;;;;;;;;;;;;;;;10.26;30.64;100014.13;5096833;28;19912;-56
2023/10/29 09:22:48;;;;;;;;;;;;;;;10.30;29.82;100012.69;5096681;28;19920;-57
2023/10/29 09:25:13;;;;;;;;;;;;;;;10.37;30.11;100005.50;5096739;28;20486;-57
2023/10/29 09:27:41;;;;;;;;;;;;;;;10.42;31.43;100005.72;5096732;28;19974;-56
2023/10/29 09:30:06;;;;;;;;;;;;;;;10.47;29.25;99994.34;5096774;28;19923;-53
2023/10/29 09:32:34;;;;;;;;;;;;;;;10.51;29.41;100005.50;5096481;28;19912;-58
2023/10/29 09:34:59;;;;;;;;;;;;;;;10.54;29.47;99995.19;5096745;28;19916;-58
2023/10/29 09:37:24;;;;;;;;;;;;;;;10.57;29.04;99989.44;5096503;28;20023;-57
2023/10/29 09:39:50;;;;;;;;;;;;;;;10.61;29.68;99989.84;5096507;28;19912;-54
2023/10/29 09:42:17;;;;;;;;;;;;;;;10.63;30.49;99982.41;5096555;28;19912;-57
2023/10/29 09:44:44;;;;;;;;;;;;;;;10.68;29.58;99990.69;5104317;28;19919;-57
2023/10/29 09:47:14;;;;;;;;;;;;;;;10.70;28.57;99993.13;5116680;28;20376;-59
2023/10/29 09:49:39;;;;;;;;;;;;;;;10.78;29.30;99996.44;5116897;28;19915;-54
2023/10/29 09:52:06;;;;;;;;;;;;;;;10.85;30.05;99991.91;5100446;28;20414;-57
2023/10/29 09:54:31;;;;;;;;;;;;;;;10.87;28.86;99983.66;5096100;28;20310;-57
2023/10/29 09:56:56;;;;;;;;;;;;;;;10.91;28.81;99989.44;5096257;28;19919;-56
2023/10/29 09:59:23;;;;;;;;;;;;;;;10.95;28.77;99983.41;5096238;28;19947;-56
2023/10/29 10:01:48;;;;;;;;;;;;;;;11.03;28.52;99979.69;5074642;28;19936;-57
2023/10/29 10:04:13;;;;;;;;;;;;;;;11.12;30.00;99972.25;5075947;28;20444;-56
2023/10/29 10:06:40;;;;;;;;;;;;;;;11.19;29.79;99967.69;5075926;28;20317;-58
2023/10/29 10:09:06;;;;;;;;;;;;;;;11.25;28.55;99964.16;5075765;28;20023;-58
2023/10/29 10:11:31;;;;;;;;;;;;;;;11.31;28.61;99959.78;5074638;28;20133;-57
2023/10/29 10:13:56;;;;;;;;;;;;;;;11.38;28.36;99952.53;5075708;28;19958;-58
2023/10/29 10:16:22;;;;;;;;;;;;;;;11.41;28.62;99952.94;5075726;28;19913;-57
2023/10/29 10:18:48;;;;;;;;;;;;;;;11.44;28.63;99954.41;5075523;28;20424;-59
2023/10/29 10:21:13;;;;;;;;;;;;;;;11.48;28.35;99952.09;5090619;28;19918;-58
2023/10/29 10:24:05;;;;;;;;;;;;;;;11.51;28.26;99949.78;5095741;28;20027;-56
2023/10/29 10:26:33;;;;;;;;;;;;;;;11.50;28.24;99948.16;5092265;28;19916;-57
2023/10/29 10:28:59;;;;;;;;;;;;;;;11.54;29.04;99957.44;5077800;28;19916;-54
2023/10/29 10:31:27;;;;;;;;;;;;;;;11.58;29.18;99947.09;5095251;28;19919;-57
2023/10/29 10:34:11;;;;;;;;;;;;;;;11.63;28.68;99945.41;5095618;28;19916;-57
2023/10/29 10:36:37;;;;;;;;;;;;;;;11.55;28.37;99937.59;5095230;28;19912;-57
2023/10/29 10:39:02;;;;;;;;;;;;;;;11.54;27.96;99927.06;5095376;28;19961;-57
2023/10/29 10:41:46;;;;;;;;;;;;;;;11.57;29.53;99929.28;5096340;27;19912;-57
2023/10/29 10:44:12;;;;;;;;;;;;;;;11.52;28.08;99927.25;5095476;28;19912;-57
2023/10/29 10:46:40;;;;;;;;;;;;;;;11.54;27.98;99927.06;5095155;28;19970;-58
2023/10/29 10:49:09;;;;;;;;;;;;;;;11.57;28.89;99927.47;5095053;28;20291;-58
2023/10/29 10:51:35;;;;;;;;;;;;;;;11.61;28.17;99927.84;5107810;28;19911;-56
2023/10/29 10:54:02;;;;;;;;;;;;;;;11.56;27.52;99916.91;5114895;28;20350;-59
2023/10/29 10:56:29;;;;;;;;;;;;;;;11.58;28.36;99920.19;5115135;28;19958;-58
2023/10/29 10:58:54;;;;;;;;;;;;;;;11.57;29.00;99914.00;5115324;28;20432;-54
2023/10/29 11:01:20;;;;;;;;;;;;;;;11.66;28.74;99911.06;5113950;28;19915;-57
2023/10/29 11:03:45;;;;;;;;;;;;;;;11.69;27.61;99911.47;5094787;28;19912;-57
2023/10/29 11:06:11;;;;;;;;;;;;;;;11.68;27.73;99909.81;5094926;28;19912;-58
2023/10/29 11:08:37;;;;;;;;;;;;;;;11.71;29.61;99903.19;5094467;28;19923;-59
2023/10/29 11:11:04;;;;;;;;;;;;;;;11.75;28.55;99901.72;5094622;28;19920;-58
2023/10/29 11:13:30;;;;;;;;;;;;;;;11.71;29.16;99898.63;5094784;28;19916;-56
2023/10/29 11:15:55;;;;;;;;;;;;;;;11.71;27.59;99897.81;5094471;28;19919;-55
2023/10/29 11:18:31;;;;;;;;;;;;;;;11.72;28.11;99905.66;5094841;28;19912;-57
2023/10/29 11:20:59;;;;;;;;;;;;;;;11.77;29.52;99897.75;5094851;28;19912;-55
2023/10/29 11:23:26;;;;;;;;;;;;;;;11.76;29.48;99882.66;5074438;28;19917;-58
2023/10/29 11:26:11;;;;;;;;;;;;;;;11.74;28.28;99895.50;5087007;28;20261;-59
2023/10/29 11:28:36;;;;;;;;;;;;;;;11.69;27.96;99889.13;5089774;28;20373;-58
2023/10/29 11:31:12;;;;;;;;;;;;;;;11.75;27.86;99881.00;5081497;28;20036;-59
2023/10/29 11:33:37;;;;;;;;;;;;;;;11.80;27.90;99872.31;5094129;28;19924;-58
2023/10/29 11:36:21;;;;;;;;;;;;;;;11.79;27.87;99871.47;5094195;28;19919;-57
2023/10/29 11:38:46;;;;;;;;;;;;;;;11.82;28.86;99868.34;5073967;28;20004;-54
2023/10/29 11:41:31;;;;;;;;;;;;;;;11.81;27.82;99855.94;5074180;28;20316;-58
2023/10/29 11:44:23;;;;;;;;;;;;;;;11.80;28.76;99850.78;5055834;28;19912;-57
2023/10/29 11:46:54;;;;;;;;;;;;;;;11.87;29.14;99848.88;5070964;28;20395;-59
2023/10/29 11:49:20;;;;;;;;;;;;;;;11.89;27.91;99845.97;5073635;28;19920;-58
2023/10/29 11:51:51;;;;;;;;;;;;;;;11.89;28.20;99835.22;5101508;28;19911;-59
2023/10/29 11:54:16;;;;;;;;;;;;;;;11.82;28.46;99827.97;5113873;28;19934;-57
2023/10/29 11:56:44;;;;;;;;;;;;;;;11.77;27.56;99832.38;5114051;28;20408;-58
2023/10/29 11:59:09;;;;;;;;;;;;;;;11.76;28.77;99822.66;5114121;28;19915;-54
2023/10/29 12:01:35;;;;;;;;;;;;;;;11.76;27.61;99825.34;5110600;28;19912;-56
2023/10/29 12:04:00;;;;;;;;;;;;;;;11.72;29.19;99827.66;5093908;28;19912;-55
2023/10/29 12:06:43;;;;;;;;;;;;;;;11.73;27.52;99820.41;5093762;28;19970;-57
2023/10/29 12:09:18;;;;;;;;;;;;;;;11.77;28.08;99824.28;5093760;28;19923;-58
2023/10/29 12:11:44;;;;;;;;;;;;;;;11.80;27.90;99827.38;5093607;28;20301;-57
2023/10/29 12:14:09;;;;;;;;;;;;;;;11.76;27.47;99820.78;5093717;28;19966;-57
2023/10/29 12:16:35;;;;;;;;;;;;;;;11.76;28.00;99819.97;5093868;28;19937;-59
2023/10/29 12:19:02;;;;;;;;;;;;;;;11.74;27.46;99809.44;5093499;28;19916;-59
2023/10/29 12:21:27;;;;;;;;;;;;;;;11.75;28.46;99810.25;5093302;28;20012;-56
2023/10/29 12:23:55;;;;;;;;;;;;;;;11.76;28.06;99798.47;5093693;28;20023;-56
2023/10/29 12:26:21;;;;;;;;;;;;;;;11.78;28.05;99799.88;5093607;28;19912;-56
2023/10/29 12:28:47;;;;;;;;;;;;;;;11.73;27.45;99794.31;5093471;28;19920;-58
2023/10/29 12:31:24;;;;;;;;;;;;;;;11.76;27.91;99785.81;5093677;28;19919;-58
2023/10/29 12:33:55;;;;;;;;;;;;;;;11.79;27.75;99789.94;5105660;28;20017;-58
2023/10/29 12:36:23;;;;;;;;;;;;;;;11.87;29.14;99787.00;5105960;28;19913;-57
2023/10/29 12:38:48;;;;;;;;;;;;;;;11.93;28.97;99786.13;5100526;28;19919;-58
2023/10/29 12:41:14;;;;;;;;;;;;;;;11.99;27.72;99797.88;5100551;28;19912;-56